sensor_id;sensor_type;location;lat;lon;timestamp;pressure;altitude;pressure_sealevel;temperature;humidity
59435;BME280;45241;49.768;8.636;2023-04-25T00:01:48;99565.28;;;11.11;100.00
59435;BME280;45241;49.768;8.636;2023-04-25T00:04:13;99563.03;;;11.08;100.00
59435;BME280;45241;49.768;8.636;2023-04-25T00:06:38;99563.50;;;10.92;100.00
59435;BME280;45241;49.768;8.636;2023-04-25T00:09:05;99566.31;;;11.10;100.00
59435;BME280;45241;49.768;8.636;2023-04-25T00:11:35;99565.13;;;10.93;100.00
59435;BME280;45241;49.768;8.636;2023-04-25T00:14:00;99563.28;;;10.94;100.00
59435;BME280;45241;49.768;8.636;2023-04-25T00:16:28;99555.63;;;10.97;100.00
59435;BME280;45241;49.768;8.636;2023-04-25T00:18:54;99565.97;;;11.00;100.00
59435;BME280;45241;49.768;8.636;2023-04-25T00:21:20;99563.88;;;10.96;100.00
59435;BME280;45241;49.768;8.636;2023-04-25T00:23:46;99557.72;;;10.82;100.00
59435;BME280;45241;49.768;8.636;2023-04-25T00:26:12;99564.94;;;10.81;100.00
59435;BME280;45241;49.768;8.636;2023-04-25T00:28:37;99564.31;;;10.93;100.00
59435;BME280;45241;49.768;8.636;2023-04-25T00:31:03;99568.88;;;10.79;100.00
59435;BME280;45241;49.768;8.636;2023-04-25T00:33:29;99567.41;;;10.83;100.00
59435;BME280;45241;49.768;8.636;2023-04-25T00:35:55;99571.13;;;10.82;100.00
59435;BME280;45241;49.768;8.636;2023-04-25T00:38:21;99560.59;;;10.94;100.00
59435;BME280;45241;49.768;8.636;2023-04-25T00:40:46;99566.78;;;10.94;100.00
59435;BME280;45241;49.768;8.636;2023-04-25T00:43:12;99557.31;;;10.92;100.00
59435;BME280;45241;49.768;8.636;2023-04-25T00:45:38;99557.47;;;11.03;100.00
59435;BME280;45241;49.768;8.636;2023-04-25T00:48:04;99556.22;;;10.99;100.00
59435;BME280;45241;49.768;8.636;2023-04-25T00:50:30;99556.91;;;10.88;100.00
59435;BME280;45241;49.768;8.636;2023-04-25T00:52:57;99561.00;;;10.97;100.00
59435;BME280;45241;49.768;8.636;2023-04-25T00:55:23;99557.94;;;10.80;100.00
59435;BME280;45241;49.768;8.636;2023-04-25T00:57:50;99553.16;;;10.96;100.00
59435;BME280;45241;49.768;8.636;2023-04-25T01:00:15;99552.56;;;10.87;100.00
59435;BME280;45241;49.768;8.636;2023-04-25T01:02:41;99550.88;;;11.06;100.00
59435;BME280;45241;49.768;8.636;2023-04-25T01:05:07;99554.41;;;11.00;100.00
59435;BME280;45241;49.768;8.636;2023-04-25T01:07:33;99552.00;;;10.65;100.00
59435;BME280;45241;49.768;8.636;2023-04-25T01:09:59;99552.97;;;10.84;100.00
59435;BME280;45241;49.768;8.636;2023-04-25T01:12:25;99554.88;;;10.64;100.00
59435;BME280;45241;49.768;8.636;2023-04-25T01:14:50;99553.22;;;10.76;100.00
59435;BME280;45241;49.768;8.636;2023-04-25T01:17:17;99554.03;;;10.56;100.00
59435;BME280;45241;49.768;8.636;2023-04-25T01:19:43;99555.47;;;10.72;100.00
59435;BME280;45241;49.768;8.636;2023-04-25T01:22:09;99550.72;;;10.81;100.00
59435;BME280;45241;49.768;8.636;2023-04-25T01:24:35;99554.44;;;10.80;100.00
59435;BME280;45241;49.768;8.636;2023-04-25T01:27:01;99552.00;;;10.65;100.00
59435;BME280;45241;49.768;8.636;2023-04-25T01:29:28;99546.00;;;10.63;100.00
59435;BME280;45241;49.768;8.636;2023-04-25T01:31:54;99549.91;;;10.67;100.00
59435;BME280;45241;49.768;8.636;2023-04-25T01:34:20;99548.50;;;10.45;100.00
59435;BME280;45241;49.768;8.636;2023-04-25T01:36:48;99543.13;;;10.51;100.00
59435;BME280;45241;49.768;8.636;2023-04-25T01:39:15;99548.91;;;10.62;100.00
59435;BME280;45241;49.768;8.636;2023-04-25T01:41:40;99551.78;;;10.53;100.00
59435;BME280;45241;49.768;8.636;2023-04-25T01:44:06;99555.06;;;10.69;100.00
59435;BME280;45241;49.768;8.636;2023-04-25T01:46:32;99557.16;;;10.53;100.00
59435;BME280;45241;49.768;8.636;2023-04-25T01:48:58;99555.91;;;10.56;100.00
59435;BME280;45241;49.768;8.636;2023-04-25T01:51:23;99557.75;;;10.69;100.00
59435;BME280;45241;49.768;8.636;2023-04-25T01:53:49;99549.28;;;10.72;100.00
59435;BME280;45241;49.768;8.636;2023-04-25T01:56:14;99553.00;;;10.71;100.00
59435;BME280;45241;49.768;8.636;2023-04-25T01:58:40;99552.19;;;10.77;100.00
59435;BME280;45241;49.768;8.636;2023-04-25T02:01:05;99553.00;;;10.71;100.00
59435;BME280;45241;49.768;8.636;2023-04-25T02:03:31;99541.66;;;10.69;100.00
59435;BME280;45241;49.768;8.636;2023-04-25T02:05:57;99549.13;;;10.40;100.00
59435;BME280;45241;49.768;8.636;2023-04-25T02:08:22;99549.72;;;10.55;100.00
59435;BME280;45241;49.768;8.636;2023-04-25T02:10:48;99554.06;;;10.63;100.00
59435;BME280;45241;49.768;8.636;2023-04-25T02:13:13;99546.84;;;10.64;100.00
59435;BME280;45241;49.768;8.636;2023-04-25T02:15:39;99539.41;;;10.66;100.00
59435;BME280;45241;49.768;8.636;2023-04-25T02:18:06;99540.66;;;10.56;100.00
59435;BME280;45241;49.768;8.636;2023-04-25T02:20:32;99538.81;;;10.44;100.00
59435;BME280;45241;49.768;8.636;2023-04-25T02:22:57;99544.16;;;10.57;100.00
59435;BME280;45241;49.768;8.636;2023-04-25T02:25:23;99537.53;;;10.60;100.00
59435;BME280;45241;49.768;8.636;2023-04-25T02:27:48;99544.56;;;10.47;100.00
59435;BME280;45241;49.768;8.636;2023-04-25T02:30:14;99536.16;;;10.24;100.00
59435;BME280;45241;49.768;8.636;2023-04-25T02:32:40;99535.50;;;10.42;100.00
59435;BME280;45241;49.768;8.636;2023-04-25T02:35:06;99537.78;;;10.25;100.00
59435;BME280;45241;49.768;8.636;2023-04-25T02:37:33;99534.09;;;10.26;100.00
59435;BME280;45241;49.768;8.636;2023-04-25T02:39:59;99536.34;;;10.22;100.00
59435;BME280;45241;49.768;8.636;2023-04-25T02:42:24;99538.38;;;10.20;100.00
59435;BME280;45241;49.768;8.636;2023-04-25T02:44:49;99534.28;;;10.44;100.00
59435;BME280;45241;49.768;8.636;2023-04-25T02:47:15;99536.13;;;10.57;100.00
59435;BME280;45241;49.768;8.636;2023-04-25T02:49:40;99538.38;;;10.47;100.00
59435;BME280;45241;49.768;8.636;2023-04-25T02:52:05;99538.38;;;10.53;100.00
59435;BME280;45241;49.768;8.636;2023-04-25T02:54:31;99535.09;;;10.51;100.00
59435;BME280;45241;49.768;8.636;2023-04-25T02:56:56;99534.84;;;10.73;100.00
59435;BME280;45241;49.768;8.636;2023-04-25T02:59:22;99533.22;;;10.65;100.00
59435;BME280;45241;49.768;8.636;2023-04-25T03:01:47;99530.53;;;10.65;100.00
59435;BME280;45241;49.768;8.636;2023-04-25T03:04:12;99535.69;;;10.67;100.00
59435;BME280;45241;49.768;8.636;2023-04-25T03:06:38;99539.00;;;10.55;100.00
59435;BME280;45241;49.768;8.636;2023-04-25T03:09:03;99535.50;;;10.62;100.00
59435;BME280;45241;49.768;8.636;2023-04-25T03:11:29;99533.00;;;10.67;100.00
59435;BME280;45241;49.768;8.636;2023-04-25T03:13:54;99541.06;;;10.67;100.00
59435;BME280;45241;49.768;8.636;2023-04-25T03:16:19;99534.28;;;10.51;100.00
59435;BME280;45241;49.768;8.636;2023-04-25T03:18:45;99529.13;;;10.63;100.00
59435;BME280;45241;49.768;8.636;2023-04-25T03:21:10;99534.03;;;10.59;100.00
59435;BME280;45241;49.768;8.636;2023-04-25T03:23:35;99534.88;;;10.53;100.00
59435;BME280;45241;49.768;8.636;2023-04-25T03:26:01;99537.16;;;10.56;100.00
59435;BME280;45241;49.768;8.636;2023-04-25T03:28:26;99536.53;;;10.47;100.00
59435;BME280;45241;49.768;8.636;2023-04-25T03:30:51;99534.47;;;10.56;100.00
59435;BME280;45241;49.768;8.636;2023-04-25T03:33:17;99533.88;;;10.61;100.00
59435;BME280;45241;49.768;8.636;2023-04-25T03:35:42;99535.28;;;10.76;100.00
59435;BME280;45241;49.768;8.636;2023-04-25T03:38:08;99531.56;;;10.71;100.00
59435;BME280;45241;49.768;8.636;2023-04-25T03:40:33;99535.31;;;10.50;100.00
59435;BME280;45241;49.768;8.636;2023-04-25T03:42:58;99540.03;;;10.54;100.00
59435;BME280;45241;49.768;8.636;2023-04-25T03:45:24;99537.56;;;10.53;100.00
59435;BME280;45241;49.768;8.636;2023-04-25T03:47:49;99545.81;;;10.51;100.00
59435;BME280;45241;49.768;8.636;2023-04-25T03:50:15;99546.59;;;10.72;100.00
59435;BME280;45241;49.768;8.636;2023-04-25T03:52:40;99543.31;;;10.76;100.00
59435;BME280;45241;49.768;8.636;2023-04-25T03:55:06;99538.97;;;10.82;100.00
59435;BME280;45241;49.768;8.636;2023-04-25T03:57:31;99532.19;;;10.66;100.00
59435;BME280;45241;49.768;8.636;2023-04-25T03:59:57;99535.66;;;10.80;100.00
59435;BME280;45241;49.768;8.636;2023-04-25T04:02:22;99540.88;;;10.48;100.00
59435;BME280;45241;49.768;8.636;2023-04-25T04:04:47;99553.44;;;10.74;100.00
59435;BME280;45241;49.768;8.636;2023-04-25T04:07:12;99548.66;;;10.70;100.00
59435;BME280;45241;49.768;8.636;2023-04-25T04:09:38;99549.31;;;10.59;100.00
59435;BME280;45241;49.768;8.636;2023-04-25T04:12:03;99553.03;;;10.38;100.00
59435;BME280;45241;49.768;8.636;2023-04-25T04:14:29;99553.44;;;10.41;100.00
59435;BME280;45241;49.768;8.636;2023-04-25T04:16:54;99557.97;;;10.54;100.00
59435;BME280;45241;49.768;8.636;2023-04-25T04:19:19;99557.56;;;10.64;100.00
59435;BME280;45241;49.768;8.636;2023-04-25T04:21:45;99559.00;;;10.60;100.00
59435;BME280;45241;49.768;8.636;2023-04-25T04:24:10;99561.88;;;10.45;100.00
59435;BME280;45241;49.768;8.636;2023-04-25T04:26:36;99569.94;;;10.45;100.00
59435;BME280;45241;49.768;8.636;2023-04-25T04:29:02;99568.06;;;10.59;100.00
59435;BME280;45241;49.768;8.636;2023-04-25T04:31:27;99559.63;;;10.62;100.00
59435;BME280;45241;49.768;8.636;2023-04-25T04:33:53;99568.06;;;10.59;100.00
59435;BME280;45241;49.768;8.636;2023-04-25T04:36:18;99561.06;;;10.44;100.00
59435;BME280;45241;49.768;8.636;2023-04-25T04:38:48;99559.81;;;10.47;100.00
59435;BME280;45241;49.768;8.636;2023-04-25T04:41:14;99565.19;;;10.53;100.00
59435;BME280;45241;49.768;8.636;2023-04-25T04:43:39;99575.50;;;10.56;100.00
59435;BME280;45241;49.768;8.636;2023-04-25T04:46:05;99565.19;;;10.53;100.00
59435;BME280;45241;49.768;8.636;2023-04-25T04:48:33;99572.38;;;10.60;100.00
59435;BME280;45241;49.768;8.636;2023-04-25T04:50:59;99582.50;;;10.44;100.00
59435;BME280;45241;49.768;8.636;2023-04-25T04:53:25;99583.09;;;10.60;100.00
59435;BME280;45241;49.768;8.636;2023-04-25T04:55:50;99580.25;;;10.61;100.00
59435;BME280;45241;49.768;8.636;2023-04-25T04:58:16;99584.97;;;10.79;100.00
59435;BME280;45241;49.768;8.636;2023-04-25T05:00:41;99586.41;;;10.81;100.00
59435;BME280;45241;49.768;8.636;2023-04-25T05:03:06;99591.16;;;10.79;100.00
59435;BME280;45241;49.768;8.636;2023-04-25T05:05:32;99589.69;;;10.83;100.00
59435;BME280;45241;49.768;8.636;2023-04-25T05:07:57;99595.28;;;10.42;100.00
59435;BME280;45241;49.768;8.636;2023-04-25T05:10:22;99597.34;;;10.40;100.00
59435;BME280;45241;49.768;8.636;2023-04-25T05:12:48;99600.84;;;10.41;100.00
59435;BME280;45241;49.768;8.636;2023-04-25T05:15:13;99608.06;;;10.53;100.00
59435;BME280;45241;49.768;8.636;2023-04-25T05:17:39;99607.06;;;10.61;100.00
59435;BME280;45241;49.768;8.636;2023-04-25T05:20:06;99611.56;;;10.47;100.00
59435;BME280;45241;49.768;8.636;2023-04-25T05:22:32;99614.66;;;10.58;100.00
59435;BME280;45241;49.768;8.636;2023-04-25T05:24:57;99615.06;;;10.54;100.00
59435;BME280;45241;49.768;8.636;2023-04-25T05:27:24;99620.84;;;10.51;100.00
59435;BME280;45241;49.768;8.636;2023-04-25T05:29:49;99622.09;;;10.36;100.00
59435;BME280;45241;49.768;8.636;2023-04-25T05:32:15;99620.84;;;10.51;100.00
59435;BME280;45241;49.768;8.636;2023-04-25T05:34:40;99624.56;;;10.37;100.00
59435;BME280;45241;49.768;8.636;2023-04-25T05:37:07;99623.94;;;10.48;100.00
59435;BME280;45241;49.768;8.636;2023-04-25T05:39:32;99628.06;;;10.51;100.00
59435;BME280;45241;49.768;8.636;2023-04-25T05:41:57;99630.31;;;10.34;100.00
59435;BME280;45241;49.768;8.636;2023-04-25T05:44:22;99635.47;;;10.42;100.00
59435;BME280;45241;49.768;8.636;2023-04-25T05:46:48;99643.91;;;10.46;100.00
59435;BME280;45241;49.768;8.636;2023-04-25T05:49:13;99647.22;;;10.41;100.00
59435;BME280;45241;49.768;8.636;2023-04-25T05:51:39;99652.97;;;10.25;99.51
59435;BME280;45241;49.768;8.636;2023-04-25T05:54:04;99652.53;;;10.15;98.64
59435;BME280;45241;49.768;8.636;2023-04-25T05:56:30;99649.00;;;10.08;100.00
59435;BME280;45241;49.768;8.636;2023-04-25T05:58:55;99652.78;;;10.46;96.87
59435;BME280;45241;49.768;8.636;2023-04-25T06:01:22;99659.63;;;10.62;95.32
59435;BME280;45241;49.768;8.636;2023-04-25T06:03:47;99658.81;;;10.88;95.09
59435;BME280;45241;49.768;8.636;2023-04-25T06:06:13;99649.91;;;11.01;95.49
59435;BME280;45241;49.768;8.636;2023-04-25T06:08:38;99657.91;;;10.28;97.69
59435;BME280;45241;49.768;8.636;2023-04-25T06:11:04;99653.63;;;10.40;99.20
59435;BME280;45241;49.768;8.636;2023-04-25T06:13:29;99664.97;;;10.69;97.65
59435;BME280;45241;49.768;8.636;2023-04-25T06:15:55;99658.78;;;10.35;99.57
59435;BME280;45241;49.768;8.636;2023-04-25T06:18:20;99652.78;;;10.46;98.35
59435;BME280;45241;49.768;8.636;2023-04-25T06:20:46;99659.88;;;9.93;96.37
59435;BME280;45241;49.768;8.636;2023-04-25T06:23:11;99660.00;;;10.39;97.78
59435;BME280;45241;49.768;8.636;2023-04-25T06:25:36;99665.06;;;10.08;96.90
59435;BME280;45241;49.768;8.636;2023-04-25T06:28:02;99653.00;;;10.45;93.91
59435;BME280;45241;49.768;8.636;2023-04-25T06:30:27;99657.97;;;10.54;94.07
59435;BME280;45241;49.768;8.636;2023-04-25T06:32:52;99659.97;;;10.26;96.57
59435;BME280;45241;49.768;8.636;2023-04-25T06:35:18;99665.53;;;10.31;91.98
59435;BME280;45241;49.768;8.636;2023-04-25T06:37:44;99662.06;;;10.37;93.14
59435;BME280;45241;49.768;8.636;2023-04-25T06:40:10;99662.66;;;10.33;92.70
59435;BME280;45241;49.768;8.636;2023-04-25T06:42:36;99662.44;;;10.14;94.40
59435;BME280;45241;49.768;8.636;2023-04-25T06:45:01;99666.94;;;10.07;93.07
59435;BME280;45241;49.768;8.636;2023-04-25T06:47:26;99662.72;;;10.66;92.85
59435;BME280;45241;49.768;8.636;2023-04-25T06:49:51;99658.16;;;10.46;93.05
59435;BME280;45241;49.768;8.636;2023-04-25T06:52:17;99667.41;;;10.31;93.81
59435;BME280;45241;49.768;8.636;2023-04-25T06:54:43;99661.84;;;10.45;91.10
59435;BME280;45241;49.768;8.636;2023-04-25T06:57:08;99667.41;;;10.31;91.44
59435;BME280;45241;49.768;8.636;2023-04-25T06:59:33;99664.56;;;10.52;88.10
59435;BME280;45241;49.768;8.636;2023-04-25T07:01:59;99672.59;;;10.52;90.08
59435;BME280;45241;49.768;8.636;2023-04-25T07:04:24;99670.34;;;10.69;89.83
59435;BME280;45241;49.768;8.636;2023-04-25T07:06:50;99669.72;;;10.73;87.54
59435;BME280;45241;49.768;8.636;2023-04-25T07:09:15;99664.53;;;10.45;85.50
59435;BME280;45241;49.768;8.636;2023-04-25T07:11:41;99678.78;;;10.72;88.51
59435;BME280;45241;49.768;8.636;2023-04-25T07:14:06;99674.88;;;10.75;85.44
59435;BME280;45241;49.768;8.636;2023-04-25T07:16:32;99682.09;;;10.68;89.65
59435;BME280;45241;49.768;8.636;2023-04-25T07:18:57;99676.91;;;10.60;88.03
59435;BME280;45241;49.768;8.636;2023-04-25T07:21:22;99684.47;;;10.16;90.06
59435;BME280;45241;49.768;8.636;2023-04-25T07:23:47;99677.34;;;10.56;87.76
59435;BME280;45241;49.768;8.636;2023-04-25T07:26:13;99682.50;;;10.65;85.12
59435;BME280;45241;49.768;8.636;2023-04-25T07:28:38;99678.59;;;10.61;84.07
59435;BME280;45241;49.768;8.636;2023-04-25T07:31:03;99681.44;;;10.39;84.69
59435;BME280;45241;49.768;8.636;2023-04-25T07:33:30;99688.06;;;10.70;84.85
59435;BME280;45241;49.768;8.636;2023-04-25T07:35:55;99687.03;;;10.64;81.71
59435;BME280;45241;49.768;8.636;2023-04-25T07:38:21;99695.06;;;10.58;85.82
59435;BME280;45241;49.768;8.636;2023-04-25T07:40:48;99692.97;;;10.40;85.76
59435;BME280;45241;49.768;8.636;2023-04-25T07:43:13;99695.28;;;10.82;85.26
59435;BME280;45241;49.768;8.636;2023-04-25T07:45:44;99701.91;;;10.87;85.00
59435;BME280;45241;49.768;8.636;2023-04-25T07:48:09;99705.16;;;10.42;83.99
59435;BME280;45241;49.768;8.636;2023-04-25T07:50:35;99703.34;;;10.63;85.39
59435;BME280;45241;49.768;8.636;2023-04-25T07:53:01;99703.34;;;10.89;84.30
59435;BME280;45241;49.768;8.636;2023-04-25T07:55:26;99707.44;;;10.72;80.61
59435;BME280;45241;49.768;8.636;2023-04-25T07:57:51;99716.16;;;10.87;80.44
59435;BME280;45241;49.768;8.636;2023-04-25T08:00:17;99716.53;;;10.84;78.40
59435;BME280;45241;49.768;8.636;2023-04-25T08:02:43;99712.00;;;10.78;81.34
59435;BME280;45241;49.768;8.636;2023-04-25T08:05:08;99720.84;;;10.59;85.07
59435;BME280;45241;49.768;8.636;2023-04-25T08:07:37;99720.88;;;10.92;81.79
59435;BME280;45241;49.768;8.636;2023-04-25T08:10:03;99727.03;;;10.85;80.56
59435;BME280;45241;49.768;8.636;2023-04-25T08:12:28;99724.78;;;10.82;79.77
59435;BME280;45241;49.768;8.636;2023-04-25T08:14:53;99732.00;;;10.95;80.66
59435;BME280;45241;49.768;8.636;2023-04-25T08:17:19;99740.88;;;10.82;76.71
59435;BME280;45241;49.768;8.636;2023-04-25T08:19:44;99742.94;;;10.74;75.16
59435;BME280;45241;49.768;8.636;2023-04-25T08:22:09;99750.28;;;10.45;80.61
59435;BME280;45241;49.768;8.636;2023-04-25T08:24:35;99751.56;;;10.56;76.43
59435;BME280;45241;49.768;8.636;2023-04-25T08:27:00;99747.06;;;10.83;80.76
59435;BME280;45241;49.768;8.636;2023-04-25T08:29:25;99754.94;;;11.18;80.33
59435;BME280;45241;49.768;8.636;2023-04-25T08:31:51;99758.41;;;11.25;75.94
59435;BME280;45241;49.768;8.636;2023-04-25T08:34:18;99757.41;;;11.26;77.29
59435;BME280;45241;49.768;8.636;2023-04-25T08:36:43;99760.28;;;11.31;73.93
59435;BME280;45241;49.768;8.636;2023-04-25T08:39:09;99747.69;;;11.25;73.80
59435;BME280;45241;49.768;8.636;2023-04-25T08:41:36;99767.72;;;11.49;75.22
59435;BME280;45241;49.768;8.636;2023-04-25T08:44:03;99763.09;;;11.89;76.33
59435;BME280;45241;49.768;8.636;2023-04-25T08:46:28;99760.25;;;12.67;74.56
59435;BME280;45241;49.768;8.636;2023-04-25T08:49:00;99756.28;;;12.38;73.40
59435;BME280;45241;49.768;8.636;2023-04-25T08:51:26;99762.50;;;12.38;74.25
59435;BME280;45241;49.768;8.636;2023-04-25T08:53:53;99761.16;;;12.54;72.03
59435;BME280;45241;49.768;8.636;2023-04-25T08:56:19;99763.50;;;11.92;70.81
59435;BME280;45241;49.768;8.636;2023-04-25T08:58:50;99764.00;;;11.56;69.11
59435;BME280;45241;49.768;8.636;2023-04-25T09:01:16;99762.47;;;11.87;72.79
59435;BME280;45241;49.768;8.636;2023-04-25T09:03:42;99781.97;;;12.33;71.57
59435;BME280;45241;49.768;8.636;2023-04-25T09:06:10;99774.50;;;12.36;71.21
59435;BME280;45241;49.768;8.636;2023-04-25T09:08:37;99773.34;;;12.12;68.54
59435;BME280;45241;49.768;8.636;2023-04-25T09:11:03;99781.44;;;12.05;70.17
59435;BME280;45241;49.768;8.636;2023-04-25T09:13:28;99786.13;;;12.16;70.73
59435;BME280;45241;49.768;8.636;2023-04-25T09:15:55;99784.25;;;11.52;71.78
59435;BME280;45241;49.768;8.636;2023-04-25T09:18:25;99787.34;;;11.49;70.00
59435;BME280;45241;49.768;8.636;2023-04-25T09:20:56;99787.72;;;11.72;67.49
59435;BME280;45241;49.768;8.636;2023-04-25T09:23:22;99793.75;;;12.32;68.27
59435;BME280;45241;49.768;8.636;2023-04-25T09:25:52;99792.88;;;12.45;71.26
59435;BME280;45241;49.768;8.636;2023-04-25T09:28:27;99793.09;;;12.44;66.90
59435;BME280;45241;49.768;8.636;2023-04-25T09:30:56;99800.38;;;12.68;67.45
59435;BME280;45241;49.768;8.636;2023-04-25T09:33:29;99791.72;;;12.66;64.59
59435;BME280;45241;49.768;8.636;2023-04-25T09:36:01;99802.16;;;12.49;63.04
59435;BME280;45241;49.768;8.636;2023-04-25T09:38:29;99804.63;;;12.51;66.10
59435;BME280;45241;49.768;8.636;2023-04-25T09:40:55;99808.31;;;12.56;66.72
59435;BME280;45241;49.768;8.636;2023-04-25T09:43:23;99805.88;;;12.42;66.84
59435;BME280;45241;49.768;8.636;2023-04-25T09:45:50;99817.94;;;12.26;67.44
59435;BME280;45241;49.768;8.636;2023-04-25T09:48:18;99823.72;;;12.29;68.11
59435;BME280;45241;49.768;8.636;2023-04-25T09:50:44;99820.28;;;12.60;66.63
59435;BME280;45241;49.768;8.636;2023-04-25T09:53:10;99821.59;;;12.45;67.03
59435;BME280;45241;49.768;8.636;2023-04-25T09:55:35;99821.44;;;12.78;65.88
59435;BME280;45241;49.768;8.636;2023-04-25T09:58:05;99826.75;;;12.91;64.62
59435;BME280;45241;49.768;8.636;2023-04-25T10:00:32;99824.38;;;13.08;66.10
59435;BME280;45241;49.768;8.636;2023-04-25T10:03:00;99833.00;;;12.85;67.98
59435;BME280;45241;49.768;8.636;2023-04-25T10:05:27;99829.13;;;12.74;63.33
59435;BME280;45241;49.768;8.636;2023-04-25T10:07:54;99831.97;;;12.79;64.52
59435;BME280;45241;49.768;8.636;2023-04-25T10:10:20;99836.44;;;12.60;63.84
59435;BME280;45241;49.768;8.636;2023-04-25T10:12:51;99840.38;;;12.51;64.95
59435;BME280;45241;49.768;8.636;2023-04-25T10:15:17;99845.00;;;12.89;64.31
59435;BME280;45241;49.768;8.636;2023-04-25T10:17:43;99838.13;;;12.93;62.18
59435;BME280;45241;49.768;8.636;2023-04-25T10:20:09;99845.03;;;12.31;65.02
59435;BME280;45241;49.768;8.636;2023-04-25T10:22:38;99850.47;;;12.05;64.24
59435;BME280;45241;49.768;8.636;2023-04-25T10:25:04;99853.75;;;12.20;67.98
59435;BME280;45241;49.768;8.636;2023-04-25T10:27:31;99846.91;;;12.24;65.01
59435;BME280;45241;49.768;8.636;2023-04-25T10:30:15;99858.09;;;12.01;66.40
59435;BME280;45241;49.768;8.636;2023-04-25T10:32:44;99859.38;;;11.92;65.10
59435;BME280;45241;49.768;8.636;2023-04-25T10:35:18;99846.47;;;12.27;65.21
59435;BME280;45241;49.768;8.636;2023-04-25T10:38:32;99860.69;;;12.41;67.15
59435;BME280;45241;49.768;8.636;2023-04-25T10:41:04;99860.50;;;12.36;64.04
59435;BME280;45241;49.768;8.636;2023-04-25T10:43:40;99865.44;;;12.45;62.30
59435;BME280;45241;49.768;8.636;2023-04-25T10:48:55;99873.19;;;12.02;64.20
59435;BME280;45241;49.768;8.636;2023-04-25T10:51:25;99871.75;;;11.99;64.22
59435;BME280;45241;49.768;8.636;2023-04-25T10:56:20;99876.50;;;11.97;64.75
59435;BME280;45241;49.768;8.636;2023-04-25T10:58:49;99882.91;;;12.03;66.51
59435;BME280;45241;49.768;8.636;2023-04-25T11:01:19;99878.56;;;12.02;64.41
59435;BME280;45241;49.768;8.636;2023-04-25T11:03:44;99878.31;;;12.30;65.73
59435;BME280;45241;49.768;8.636;2023-04-25T11:06:23;99883.91;;;12.15;66.50
59435;BME280;45241;49.768;8.636;2023-04-25T11:08:51;99885.38;;;12.11;66.01
59435;BME280;45241;49.768;8.636;2023-04-25T11:11:17;99885.41;;;11.91;63.61
59435;BME280;45241;49.768;8.636;2023-04-25T11:13:44;99883.72;;;12.10;63.08
59435;BME280;45241;49.768;8.636;2023-04-25T11:16:10;99880.53;;;12.46;64.51
59435;BME280;45241;49.768;8.636;2023-04-25T11:18:35;99883.28;;;12.33;61.14
59435;BME280;45241;49.768;8.636;2023-04-25T11:21:02;99883.72;;;12.10;63.55
59435;BME280;45241;49.768;8.636;2023-04-25T11:23:29;99886.56;;;12.35;63.64
59435;BME280;45241;49.768;8.636;2023-04-25T11:25:55;99882.00;;;12.29;62.26
59435;BME280;45241;49.768;8.636;2023-04-25T11:28:21;99880.03;;;12.69;62.33
59435;BME280;45241;49.768;8.636;2023-04-25T11:30:50;99886.03;;;12.65;62.55
59435;BME280;45241;49.768;8.636;2023-04-25T11:33:16;99894.84;;;12.91;63.83
59435;BME280;45241;49.768;8.636;2023-04-25T11:35:41;99894.06;;;12.20;62.97
59435;BME280;45241;49.768;8.636;2023-04-25T11:38:06;99891.13;;;12.35;63.51
59435;BME280;45241;49.768;8.636;2023-04-25T11:40:32;99899.84;;;12.10;65.48
59435;BME280;45241;49.768;8.636;2023-04-25T11:42:59;99894.38;;;12.50;64.09
59435;BME280;45241;49.768;8.636;2023-04-25T11:45:25;99897.38;;;12.09;62.47
59435;BME280;45241;49.768;8.636;2023-04-25T11:47:51;99906.25;;;12.09;63.87
59435;BME280;45241;49.768;8.636;2023-04-25T11:50:16;99903.16;;;12.12;64.78
59435;BME280;45241;49.768;8.636;2023-04-25T11:52:43;99897.22;;;12.61;63.06
59435;BME280;45241;49.768;8.636;2023-04-25T11:57:41;99897.13;;;12.81;61.92
59435;BME280;45241;49.768;8.636;2023-04-25T12:00:17;99897.41;;;12.67;61.24
59435;BME280;45241;49.768;8.636;2023-04-25T12:02:44;99906.88;;;12.89;62.11
59435;BME280;45241;49.768;8.636;2023-04-25T12:05:11;99912.84;;;12.98;61.76
59435;BME280;45241;49.768;8.636;2023-04-25T12:07:37;99902.41;;;13.08;60.27
59435;BME280;45241;49.768;8.636;2023-04-25T12:10:07;99903.56;;;13.25;61.32
59435;BME280;45241;49.768;8.636;2023-04-25T12:12:34;99903.78;;;12.79;58.13
59435;BME280;45241;49.768;8.636;2023-04-25T12:17:36;99903.59;;;13.18;60.76
59435;BME280;45241;49.768;8.636;2023-04-25T12:20:11;99905.47;;;12.73;59.31
59435;BME280;45241;49.768;8.636;2023-04-25T12:22:37;99914.59;;;12.66;60.42
59435;BME280;45241;49.768;8.636;2023-04-25T12:25:04;99911.44;;;12.75;61.65
59435;BME280;45241;49.768;8.636;2023-04-25T12:27:33;99924.63;;;12.32;61.99
59435;BME280;45241;49.768;8.636;2023-04-25T12:29:59;99916.88;;;12.55;61.31
59435;BME280;45241;49.768;8.636;2023-04-25T12:32:24;99924.16;;;12.48;60.30
59435;BME280;45241;49.768;8.636;2023-04-25T12:34:51;99914.16;;;12.69;60.38
59435;BME280;45241;49.768;8.636;2023-04-25T12:37:16;99918.13;;;12.59;60.83
59435;BME280;45241;49.768;8.636;2023-04-25T12:39:42;99925.81;;;12.56;62.69
59435;BME280;45241;49.768;8.636;2023-04-25T12:42:07;99935.97;;;12.47;62.46
59435;BME280;45241;49.768;8.636;2023-04-25T12:44:33;99933.88;;;12.56;65.29
59435;BME280;45241;49.768;8.636;2023-04-25T12:46:58;99933.22;;;12.54;61.73
59435;BME280;45241;49.768;8.636;2023-04-25T12:49:24;99932.63;;;12.52;61.59
59435;BME280;45241;49.768;8.636;2023-04-25T12:51:50;99924.03;;;12.81;61.71
59435;BME280;45241;49.768;8.636;2023-04-25T12:54:16;99935.03;;;12.73;61.52
59435;BME280;45241;49.768;8.636;2023-04-25T12:56:42;99936.56;;;12.43;60.91
59435;BME280;45241;49.768;8.636;2023-04-25T12:59:07;99940.28;;;12.48;60.78
59435;BME280;45241;49.768;8.636;2023-04-25T13:01:33;99946.94;;;12.32;60.09